sensor_id;sensor_type;location;lat;lon;timestamp;temperature;humidity
10149;DHT22;5115;50.920;6.376;2023-05-18T00:01:38;10.60;99.90
10149;DHT22;5115;50.920;6.376;2023-05-18T00:04:05;10.70;99.90
10149;DHT22;5115;50.920;6.376;2023-05-18T00:06:32;10.70;99.90
10149;DHT22;5115;50.920;6.376;2023-05-18T00:08:58;10.80;99.90
10149;DHT22;5115;50.920;6.376;2023-05-18T00:11:24;10.70;99.90
10149;DHT22;5115;50.920;6.376;2023-05-18T00:13:49;10.70;99.90
10149;DHT22;5115;50.920;6.376;2023-05-18T00:16:15;10.70;99.90
10149;DHT22;5115;50.920;6.376;2023-05-18T00:18:40;10.70;99.90
10149;DHT22;5115;50.920;6.376;2023-05-18T00:21:06;10.60;99.90
10149;DHT22;5115;50.920;6.376;2023-05-18T00:23:33;10.60;99.90
10149;DHT22;5115;50.920;6.376;2023-05-18T00:26:01;10.50;99.90
10149;DHT22;5115;50.920;6.376;2023-05-18T00:28:28;10.50;99.90
10149;DHT22;5115;50.920;6.376;2023-05-18T00:30:54;10.50;99.90
10149;DHT22;5115;50.920;6.376;2023-05-18T00:33:21;10.40;99.90
10149;DHT22;5115;50.920;6.376;2023-05-18T00:35:46;10.30;99.90
10149;DHT22;5115;50.920;6.376;2023-05-18T00:38:12;10.30;99.90
10149;DHT22;5115;50.920;6.376;2023-05-18T00:40:40;10.30;99.90
10149;DHT22;5115;50.920;6.376;2023-05-18T00:43:06;10.30;99.90
10149;DHT22;5115;50.920;6.376;2023-05-18T00:45:32;10.30;99.90
10149;DHT22;5115;50.920;6.376;2023-05-18T00:47:57;10.50;99.90
10149;DHT22;5115;50.920;6.376;2023-05-18T00:50:24;10.20;99.90
10149;DHT22;5115;50.920;6.376;2023-05-18T00:52:49;10.10;99.90
10149;DHT22;5115;50.920;6.376;2023-05-18T00:55:16;10.10;99.90
10149;DHT22;5115;50.920;6.376;2023-05-18T00:57:42;10.20;99.90
10149;DHT22;5115;50.920;6.376;2023-05-18T01:00:10;10.20;99.90
10149;DHT22;5115;50.920;6.376;2023-05-18T01:02:41;10.20;99.90
10149;DHT22;5115;50.920;6.376;2023-05-18T01:05:08;10.20;99.90
10149;DHT22;5115;50.920;6.376;2023-05-18T01:07:36;10.20;99.90
10149;DHT22;5115;50.920;6.376;2023-05-18T01:10:02;10.10;99.90
10149;DHT22;5115;50.920;6.376;2023-05-18T01:12:36;10.10;99.90
10149;DHT22;5115;50.920;6.376;2023-05-18T01:28:24;10.00;99.90
10149;DHT22;5115;50.920;6.376;2023-05-18T01:30:53;9.90;99.90
10149;DHT22;5115;50.920;6.376;2023-05-18T01:33:18;9.80;99.90
10149;DHT22;5115;50.920;6.376;2023-05-18T01:35:44;9.60;99.90
10149;DHT22;5115;50.920;6.376;2023-05-18T01:38:17;9.40;99.90
10149;DHT22;5115;50.920;6.376;2023-05-18T01:41:05;9.30;99.90
10149;DHT22;5115;50.920;6.376;2023-05-18T01:43:35;9.10;99.90
10149;DHT22;5115;50.920;6.376;2023-05-18T01:46:08;9.00;99.90
10149;DHT22;5115;50.920;6.376;2023-05-18T01:48:38;9.10;99.90
10149;DHT22;5115;50.920;6.376;2023-05-18T01:51:09;8.90;99.90
10149;DHT22;5115;50.920;6.376;2023-05-18T01:53:42;8.70;99.90
10149;DHT22;5115;50.920;6.376;2023-05-18T01:56:10;8.70;99.90
10149;DHT22;5115;50.920;6.376;2023-05-18T01:58:38;8.60;99.90
10149;DHT22;5115;50.920;6.376;2023-05-18T02:01:04;8.60;99.90
10149;DHT22;5115;50.920;6.376;2023-05-18T02:03:33;8.60;99.90
10149;DHT22;5115;50.920;6.376;2023-05-18T02:05:58;8.60;99.90
10149;DHT22;5115;50.920;6.376;2023-05-18T02:08:24;8.50;99.90
10149;DHT22;5115;50.920;6.376;2023-05-18T02:10:50;8.40;99.90
10149;DHT22;5115;50.920;6.376;2023-05-18T02:13:17;8.40;99.90
10149;DHT22;5115;50.920;6.376;2023-05-18T02:15:42;8.40;99.90
10149;DHT22;5115;50.920;6.376;2023-05-18T02:18:09;8.40;99.90
10149;DHT22;5115;50.920;6.376;2023-05-18T02:20:35;8.40;99.90
10149;DHT22;5115;50.920;6.376;2023-05-18T02:23:02;8.50;99.90
10149;DHT22;5115;50.920;6.376;2023-05-18T02:25:27;8.60;99.90
10149;DHT22;5115;50.920;6.376;2023-05-18T02:27:53;8.70;99.90
10149;DHT22;5115;50.920;6.376;2023-05-18T02:30:19;8.80;99.90
10149;DHT22;5115;50.920;6.376;2023-05-18T02:32:45;8.80;99.90
10149;DHT22;5115;50.920;6.376;2023-05-18T02:35:11;8.20;99.90
10149;DHT22;5115;50.920;6.376;2023-05-18T02:37:37;9.00;99.90
10149;DHT22;5115;50.920;6.376;2023-05-18T02:40:12;9.00;99.90
10149;DHT22;5115;50.920;6.376;2023-05-18T02:42:37;9.10;99.90
10149;DHT22;5115;50.920;6.376;2023-05-18T02:45:03;9.20;99.90
10149;DHT22;5115;50.920;6.376;2023-05-18T02:47:29;9.20;99.90
10149;DHT22;5115;50.920;6.376;2023-05-18T02:49:54;9.20;99.90
10149;DHT22;5115;50.920;6.376;2023-05-18T02:52:20;9.20;99.90
10149;DHT22;5115;50.920;6.376;2023-05-18T02:54:46;9.20;99.90
10149;DHT22;5115;50.920;6.376;2023-05-18T02:57:12;9.20;99.90
10149;DHT22;5115;50.920;6.376;2023-05-18T02:59:38;9.30;99.90
10149;DHT22;5115;50.920;6.376;2023-05-18T03:02:04;9.20;99.90
10149;DHT22;5115;50.920;6.376;2023-05-18T03:04:30;9.20;99.90
10149;DHT22;5115;50.920;6.376;2023-05-18T03:06:56;9.10;99.90
10149;DHT22;5115;50.920;6.376;2023-05-18T03:09:22;9.10;99.90
10149;DHT22;5115;50.920;6.376;2023-05-18T03:11:48;9.10;99.90
10149;DHT22;5115;50.920;6.376;2023-05-18T03:14:13;9.10;99.90
10149;DHT22;5115;50.920;6.376;2023-05-18T03:16:39;9.10;99.90
10149;DHT22;5115;50.920;6.376;2023-05-18T03:19:05;9.10;99.90
10149;DHT22;5115;50.920;6.376;2023-05-18T03:21:30;9.00;99.90
10149;DHT22;5115;50.920;6.376;2023-05-18T03:24:00;9.00;99.90
10149;DHT22;5115;50.920;6.376;2023-05-18T03:26:26;8.90;99.90
10149;DHT22;5115;50.920;6.376;2023-05-18T03:28:57;8.80;99.90
10149;DHT22;5115;50.920;6.376;2023-05-18T03:31:24;8.80;99.90
10149;DHT22;5115;50.920;6.376;2023-05-18T03:33:50;8.70;99.90
10149;DHT22;5115;50.920;6.376;2023-05-18T03:36:15;8.70;99.90
10149;DHT22;5115;50.920;6.376;2023-05-18T03:38:42;8.80;99.90
10149;DHT22;5115;50.920;6.376;2023-05-18T03:41:11;8.70;99.90
10149;DHT22;5115;50.920;6.376;2023-05-18T03:43:37;8.80;99.90
10149;DHT22;5115;50.920;6.376;2023-05-18T03:46:02;8.80;99.90
10149;DHT22;5115;50.920;6.376;2023-05-18T03:48:28;8.70;99.90
10149;DHT22;5115;50.920;6.376;2023-05-18T03:50:54;8.70;99.90
10149;DHT22;5115;50.920;6.376;2023-05-18T03:53:19;8.70;99.90
10149;DHT22;5115;50.920;6.376;2023-05-18T03:55:46;8.70;99.90
10149;DHT22;5115;50.920;6.376;2023-05-18T03:58:16;8.70;99.90
10149;DHT22;5115;50.920;6.376;2023-05-18T04:00:44;8.70;99.90
10149;DHT22;5115;50.920;6.376;2023-05-18T04:03:10;8.80;99.90
10149;DHT22;5115;50.920;6.376;2023-05-18T04:05:37;8.80;99.90
10149;DHT22;5115;50.920;6.376;2023-05-18T04:08:03;8.70;99.90
10149;DHT22;5115;50.920;6.376;2023-05-18T04:10:29;8.70;99.90
10149;DHT22;5115;50.920;6.376;2023-05-18T04:12:55;8.70;99.90
10149;DHT22;5115;50.920;6.376;2023-05-18T04:15:21;8.70;99.90
10149;DHT22;5115;50.920;6.376;2023-05-18T04:17:49;8.70;99.90
10149;DHT22;5115;50.920;6.376;2023-05-18T04:20:15;8.80;99.90
10149;DHT22;5115;50.920;6.376;2023-05-18T04:22:43;8.70;99.90
10149;DHT22;5115;50.920;6.376;2023-05-18T04:25:11;8.70;99.90
10149;DHT22;5115;50.920;6.376;2023-05-18T04:27:38;8.90;99.90
10149;DHT22;5115;50.920;6.376;2023-05-18T04:30:04;8.90;99.90
10149;DHT22;5115;50.920;6.376;2023-05-18T04:32:33;9.00;99.90
10149;DHT22;5115;50.920;6.376;2023-05-18T04:35:05;9.10;99.90
10149;DHT22;5115;50.920;6.376;2023-05-18T04:37:31;9.20;99.90
10149;DHT22;5115;50.920;6.376;2023-05-18T04:39:57;9.20;99.90
10149;DHT22;5115;50.920;6.376;2023-05-18T04:42:27;9.70;99.90
10149;DHT22;5115;50.920;6.376;2023-05-18T04:44:52;9.50;99.90
10149;DHT22;5115;50.920;6.376;2023-05-18T04:47:18;9.50;99.90
10149;DHT22;5115;50.920;6.376;2023-05-18T04:49:46;9.60;99.90
10149;DHT22;5115;50.920;6.376;2023-05-18T04:52:13;9.60;99.90
10149;DHT22;5115;50.920;6.376;2023-05-18T04:54:39;9.60;99.90
10149;DHT22;5115;50.920;6.376;2023-05-18T04:57:05;9.60;99.90
10149;DHT22;5115;50.920;6.376;2023-05-18T04:59:31;9.60;99.90
10149;DHT22;5115;50.920;6.376;2023-05-18T05:02:01;9.80;99.90
10149;DHT22;5115;50.920;6.376;2023-05-18T05:04:27;10.00;99.90
10149;DHT22;5115;50.920;6.376;2023-05-18T05:06:53;10.00;99.90
10149;DHT22;5115;50.920;6.376;2023-05-18T05:09:19;10.00;99.90
10149;DHT22;5115;50.920;6.376;2023-05-18T05:11:44;10.10;99.90
10149;DHT22;5115;50.920;6.376;2023-05-18T05:14:10;10.30;99.90
10149;DHT22;5115;50.920;6.376;2023-05-18T05:16:36;10.50;99.90
10149;DHT22;5115;50.920;6.376;2023-05-18T05:19:02;10.60;99.90
10149;DHT22;5115;50.920;6.376;2023-05-18T05:21:27;10.90;99.90
10149;DHT22;5115;50.920;6.376;2023-05-18T05:23:53;10.80;99.90
10149;DHT22;5115;50.920;6.376;2023-05-18T05:26:19;11.00;99.90
10149;DHT22;5115;50.920;6.376;2023-05-18T05:28:46;11.20;99.90
10149;DHT22;5115;50.920;6.376;2023-05-18T05:31:11;11.10;99.90
10149;DHT22;5115;50.920;6.376;2023-05-18T05:33:38;11.20;99.90
10149;DHT22;5115;50.920;6.376;2023-05-18T05:36:03;11.20;99.90
10149;DHT22;5115;50.920;6.376;2023-05-18T05:38:30;11.30;99.90
10149;DHT22;5115;50.920;6.376;2023-05-18T05:40:56;11.40;99.90
10149;DHT22;5115;50.920;6.376;2023-05-18T05:43:21;11.60;99.90
10149;DHT22;5115;50.920;6.376;2023-05-18T05:45:47;12.00;99.90
10149;DHT22;5115;50.920;6.376;2023-05-18T05:48:12;12.10;99.90
10149;DHT22;5115;50.920;6.376;2023-05-18T05:50:38;12.30;99.90
10149;DHT22;5115;50.920;6.376;2023-05-18T05:53:04;12.50;99.90
10149;DHT22;5115;50.920;6.376;2023-05-18T05:55:29;12.60;99.90
10149;DHT22;5115;50.920;6.376;2023-05-18T05:57:55;12.70;99.90
10149;DHT22;5115;50.920;6.376;2023-05-18T06:00:20;12.70;99.90
10149;DHT22;5115;50.920;6.376;2023-05-18T06:02:47;12.90;99.90
10149;DHT22;5115;50.920;6.376;2023-05-18T06:05:14;13.10;99.90
10149;DHT22;5115;50.920;6.376;2023-05-18T06:07:40;13.20;99.90
10149;DHT22;5115;50.920;6.376;2023-05-18T06:10:06;13.30;99.90
10149;DHT22;5115;50.920;6.376;2023-05-18T06:12:32;13.40;99.90
10149;DHT22;5115;50.920;6.376;2023-05-18T06:14:58;13.70;99.90
10149;DHT22;5115;50.920;6.376;2023-05-18T06:17:24;13.90;99.90
10149;DHT22;5115;50.920;6.376;2023-05-18T06:19:50;13.90;99.90
10149;DHT22;5115;50.920;6.376;2023-05-18T06:22:16;13.90;99.90
10149;DHT22;5115;50.920;6.376;2023-05-18T06:24:41;14.00;99.90
10149;DHT22;5115;50.920;6.376;2023-05-18T06:27:07;14.30;99.90
10149;DHT22;5115;50.920;6.376;2023-05-18T06:29:33;14.50;99.90
10149;DHT22;5115;50.920;6.376;2023-05-18T06:31:59;14.80;99.90
10149;DHT22;5115;50.920;6.376;2023-05-18T06:34:24;15.40;99.90
10149;DHT22;5115;50.920;6.376;2023-05-18T06:36:50;15.30;99.90
10149;DHT22;5115;50.920;6.376;2023-05-18T06:39:15;15.50;99.90
10149;DHT22;5115;50.920;6.376;2023-05-18T06:41:41;15.80;99.90
10149;DHT22;5115;50.920;6.376;2023-05-18T06:44:09;15.80;99.90
10149;DHT22;5115;50.920;6.376;2023-05-18T06:46:34;15.30;99.90
10149;DHT22;5115;50.920;6.376;2023-05-18T06:49:00;15.40;99.90
10149;DHT22;5115;50.920;6.376;2023-05-18T06:51:26;15.60;99.90
10149;DHT22;5115;50.920;6.376;2023-05-18T06:53:51;15.90;99.90
10149;DHT22;5115;50.920;6.376;2023-05-18T06:56:17;15.90;99.90
10149;DHT22;5115;50.920;6.376;2023-05-18T06:58:43;16.10;99.90
10149;DHT22;5115;50.920;6.376;2023-05-18T07:01:09;16.20;99.90
10149;DHT22;5115;50.920;6.376;2023-05-18T07:03:35;16.20;99.90
10149;DHT22;5115;50.920;6.376;2023-05-18T07:06:02;16.50;99.90
10149;DHT22;5115;50.920;6.376;2023-05-18T07:08:29;16.90;99.90
10149;DHT22;5115;50.920;6.376;2023-05-18T07:10:55;17.30;99.90
10149;DHT22;5115;50.920;6.376;2023-05-18T07:13:22;17.60;99.90
10149;DHT22;5115;50.920;6.376;2023-05-18T07:15:48;17.40;99.90
10149;DHT22;5115;50.920;6.376;2023-05-18T07:18:14;17.80;99.90
10149;DHT22;5115;50.920;6.376;2023-05-18T07:20:39;17.90;99.90
10149;DHT22;5115;50.920;6.376;2023-05-18T07:23:06;18.30;99.90
10149;DHT22;5115;50.920;6.376;2023-05-18T07:25:32;18.70;99.90
10149;DHT22;5115;50.920;6.376;2023-05-18T07:27:58;18.90;99.90
10149;DHT22;5115;50.920;6.376;2023-05-18T07:30:23;18.70;99.90
10149;DHT22;5115;50.920;6.376;2023-05-18T07:32:50;18.60;99.90
10149;DHT22;5115;50.920;6.376;2023-05-18T07:35:16;18.60;99.90
10149;DHT22;5115;50.920;6.376;2023-05-18T07:37:44;18.50;99.90
10149;DHT22;5115;50.920;6.376;2023-05-18T07:40:10;18.20;99.90
10149;DHT22;5115;50.920;6.376;2023-05-18T07:42:38;18.30;99.90
10149;DHT22;5115;50.920;6.376;2023-05-18T07:45:04;18.30;99.90
10149;DHT22;5115;50.920;6.376;2023-05-18T07:47:30;18.30;99.90
10149;DHT22;5115;50.920;6.376;2023-05-18T07:49:56;18.50;99.90
10149;DHT22;5115;50.920;6.376;2023-05-18T07:52:21;18.80;99.90
10149;DHT22;5115;50.920;6.376;2023-05-18T07:54:47;19.40;99.90
10149;DHT22;5115;50.920;6.376;2023-05-18T07:57:13;18.90;99.90
10149;DHT22;5115;50.920;6.376;2023-05-18T07:59:38;19.00;99.90
10149;DHT22;5115;50.920;6.376;2023-05-18T08:02:04;18.80;99.90
10149;DHT22;5115;50.920;6.376;2023-05-18T08:04:30;19.10;99.90
10149;DHT22;5115;50.920;6.376;2023-05-18T08:06:57;19.60;99.90
10149;DHT22;5115;50.920;6.376;2023-05-18T08:09:25;19.80;99.90
10149;DHT22;5115;50.920;6.376;2023-05-18T08:11:51;19.60;99.90
10149;DHT22;5115;50.920;6.376;2023-05-18T08:14:16;19.60;99.90
10149;DHT22;5115;50.920;6.376;2023-05-18T08:16:42;19.70;99.90
10149;DHT22;5115;50.920;6.376;2023-05-18T08:19:07;19.70;99.90
10149;DHT22;5115;50.920;6.376;2023-05-18T08:21:33;20.10;99.90
10149;DHT22;5115;50.920;6.376;2023-05-18T08:23:59;20.00;99.90
10149;DHT22;5115;50.920;6.376;2023-05-18T08:26:24;19.70;99.90
10149;DHT22;5115;50.920;6.376;2023-05-18T08:28:51;19.40;99.90
10149;DHT22;5115;50.920;6.376;2023-05-18T08:31:17;19.80;99.90
10149;DHT22;5115;50.920;6.376;2023-05-18T08:33:42;19.60;99.90
10149;DHT22;5115;50.920;6.376;2023-05-18T08:36:08;19.50;99.90
10149;DHT22;5115;50.920;6.376;2023-05-18T08:38:34;19.10;99.90
10149;DHT22;5115;50.920;6.376;2023-05-18T08:41:06;19.40;99.90
10149;DHT22;5115;50.920;6.376;2023-05-18T08:43:37;19.30;99.90
10149;DHT22;5115;50.920;6.376;2023-05-18T08:46:27;19.20;99.90
10149;DHT22;5115;50.920;6.376;2023-05-18T08:48:57;19.40;99.90
10149;DHT22;5115;50.920;6.376;2023-05-18T08:51:27;19.50;99.90
10149;DHT22;5115;50.920;6.376;2023-05-18T08:53:53;20.00;99.90
10149;DHT22;5115;50.920;6.376;2023-05-18T08:56:23;19.90;99.90
10149;DHT22;5115;50.920;6.376;2023-05-18T08:58:51;19.90;99.90
10149;DHT22;5115;50.920;6.376;2023-05-18T09:01:19;19.90;99.90
10149;DHT22;5115;50.920;6.376;2023-05-18T09:03:45;20.60;99.90
10149;DHT22;5115;50.920;6.376;2023-05-18T09:06:13;21.30;99.90
10149;DHT22;5115;50.920;6.376;2023-05-18T09:08:42;21.30;99.90
10149;DHT22;5115;50.920;6.376;2023-05-18T09:11:09;20.30;99.90
10149;DHT22;5115;50.920;6.376;2023-05-18T09:13:37;21.30;99.90
10149;DHT22;5115;50.920;6.376;2023-05-18T09:16:03;21.40;99.50
10149;DHT22;5115;50.920;6.376;2023-05-18T09:18:28;20.90;99.00
10149;DHT22;5115;50.920;6.376;2023-05-18T09:20:54;20.50;97.80
10149;DHT22;5115;50.920;6.376;2023-05-18T09:23:20;20.00;98.80
10149;DHT22;5115;50.920;6.376;2023-05-18T09:25:46;20.00;99.70
10149;DHT22;5115;50.920;6.376;2023-05-18T09:28:31;19.80;99.90
10149;DHT22;5115;50.920;6.376;2023-05-18T09:30:57;20.00;99.90
10149;DHT22;5115;50.920;6.376;2023-05-18T09:33:23;20.60;99.90
10149;DHT22;5115;50.920;6.376;2023-05-18T09:35:49;20.60;98.90
10149;DHT22;5115;50.920;6.376;2023-05-18T09:38:17;20.90;99.60
10149;DHT22;5115;50.920;6.376;2023-05-18T09:40:48;20.80;99.80
10149;DHT22;5115;50.920;6.376;2023-05-18T09:43:16;20.70;99.50
10149;DHT22;5115;50.920;6.376;2023-05-18T09:45:45;20.80;98.90
10149;DHT22;5115;50.920;6.376;2023-05-18T09:48:11;20.50;99.20
10149;DHT22;5115;50.920;6.376;2023-05-18T09:50:37;21.20;99.90
10149;DHT22;5115;50.920;6.376;2023-05-18T09:53:07;21.70;99.90
10149;DHT22;5115;50.920;6.376;2023-05-18T09:55:36;22.30;99.00
10149;DHT22;5115;50.920;6.376;2023-05-18T09:58:05;22.10;97.70
10149;DHT22;5115;50.920;6.376;2023-05-18T10:00:32;22.10;98.40
10149;DHT22;5115;50.920;6.376;2023-05-18T10:03:01;21.70;98.30
10149;DHT22;5115;50.920;6.376;2023-05-18T10:05:28;21.20;98.90
10149;DHT22;5115;50.920;6.376;2023-05-18T10:07:58;21.00;98.40
10149;DHT22;5115;50.920;6.376;2023-05-18T10:10:26;20.90;96.90
10149;DHT22;5115;50.920;6.376;2023-05-18T10:12:54;21.20;97.60
10149;DHT22;5115;50.920;6.376;2023-05-18T10:15:21;21.50;97.30
10149;DHT22;5115;50.920;6.376;2023-05-18T10:17:48;21.70;97.40
10149;DHT22;5115;50.920;6.376;2023-05-18T10:20:22;21.70;98.40
10149;DHT22;5115;50.920;6.376;2023-05-18T10:22:54;21.40;97.10
10149;DHT22;5115;50.920;6.376;2023-05-18T10:25:22;21.20;97.00
10149;DHT22;5115;50.920;6.376;2023-05-18T10:27:57;21.60;98.70
10149;DHT22;5115;50.920;6.376;2023-05-18T10:30:25;21.40;97.10
10149;DHT22;5115;50.920;6.376;2023-05-18T10:32:52;21.30;97.60
10149;DHT22;5115;50.920;6.376;2023-05-18T10:35:19;21.00;98.10
10149;DHT22;5115;50.920;6.376;2023-05-18T10:37:46;20.80;98.20
10149;DHT22;5115;50.920;6.376;2023-05-18T10:40:13;20.30;97.70
10149;DHT22;5115;50.920;6.376;2023-05-18T10:42:40;20.10;98.00
10149;DHT22;5115;50.920;6.376;2023-05-18T10:45:08;20.20;98.40
10149;DHT22;5115;50.920;6.376;2023-05-18T10:47:36;20.10;98.00
10149;DHT22;5115;50.920;6.376;2023-05-18T10:50:07;20.00;99.70
10149;DHT22;5115;50.920;6.376;2023-05-18T10:52:36;20.10;98.90
10149;DHT22;5115;50.920;6.376;2023-05-18T10:55:01;20.70;99.10
10149;DHT22;5115;50.920;6.376;2023-05-18T10:57:34;21.10;99.10
10149;DHT22;5115;50.920;6.376;2023-05-18T11:00:02;21.30;98.60
10149;DHT22;5115;50.920;6.376;2023-05-18T11:02:29;21.10;98.80
10149;DHT22;5115;50.920;6.376;2023-05-18T11:04:55;21.20;98.50
10149;DHT22;5115;50.920;6.376;2023-05-18T11:07:21;21.30;98.20
10149;DHT22;5115;50.920;6.376;2023-05-18T11:09:48;21.20;98.60
10149;DHT22;5115;50.920;6.376;2023-05-18T11:12:16;21.00;98.80
10149;DHT22;5115;50.920;6.376;2023-05-18T11:14:50;20.30;98.80
10149;DHT22;5115;50.920;6.376;2023-05-18T11:17:27;20.20;98.40
10149;DHT22;5115;50.920;6.376;2023-05-18T11:28:14;20.80;99.40
10149;DHT22;5115;50.920;6.376;2023-05-18T11:33:22;20.50;98.90
10149;DHT22;5115;50.920;6.376;2023-05-18T11:38:18;20.60;99.40
10149;DHT22;5115;50.920;6.376;2023-05-18T11:40:47;20.90;98.40
10149;DHT22;5115;50.920;6.376;2023-05-18T11:43:20;20.40;99.90
10149;DHT22;5115;50.920;6.376;2023-05-18T11:45:55;20.50;99.90
10149;DHT22;5115;50.920;6.376;2023-05-18T11:48:30;20.80;99.40
10149;DHT22;5115;50.920;6.376;2023-05-18T11:50:56;21.20;98.50
10149;DHT22;5115;50.920;6.376;2023-05-18T11:53:23;21.10;98.90
10149;DHT22;5115;50.920;6.376;2023-05-18T11:55:51;20.70;99.20
10149;DHT22;5115;50.920;6.376;2023-05-18T11:58:19;20.30;98.30
10149;DHT22;5115;50.920;6.376;2023-05-18T12:00:45;20.10;99.10
10149;DHT22;5115;50.920;6.376;2023-05-18T12:03:12;20.50;99.90
10149;DHT22;5115;50.920;6.376;2023-05-18T12:05:39;20.30;99.20
10149;DHT22;5115;50.920;6.376;2023-05-18T12:08:07;20.10;99.90
10149;DHT22;5115;50.920;6.376;2023-05-18T12:10:34;20.20;98.90
10149;DHT22;5115;50.920;6.376;2023-05-18T12:13:03;19.10;97.70
10149;DHT22;5115;50.920;6.376;2023-05-18T12:15:30;18.80;98.60
10149;DHT22;5115;50.920;6.376;2023-05-18T12:17:57;19.20;99.90
10149;DHT22;5115;50.920;6.376;2023-05-18T12:20:23;19.50;99.90
10149;DHT22;5115;50.920;6.376;2023-05-18T12:22:53;19.60;99.90
10149;DHT22;5115;50.920;6.376;2023-05-18T12:25:21;19.70;98.80
10149;DHT22;5115;50.920;6.376;2023-05-18T12:27:48;19.70;99.50
10149;DHT22;5115;50.920;6.376;2023-05-18T12:30:24;20.00;99.90
10149;DHT22;5115;50.920;6.376;2023-05-18T12:32:52;20.10;99.90
10149;DHT22;5115;50.920;6.376;2023-05-18T12:35:28;20.20;99.90
10149;DHT22;5115;50.920;6.376;2023-05-18T12:37:55;20.20;99.90
10149;DHT22;5115;50.920;6.376;2023-05-18T12:40:25;19.90;99.80
10149;DHT22;5115;50.920;6.376;2023-05-18T12:42:56;19.50;99.90
10149;DHT22;5115;50.920;6.376;2023-05-18T12:45:26;19.30;99.30
10149;DHT22;5115;50.920;6.376;2023-05-18T12:47:52;19.20;99.90
10149;DHT22;5115;50.920;6.376;2023-05-18T12:50:22;19.00;99.90
10149;DHT22;5115;50.920;6.376;2023-05-18T12:52:49;19.20;99.90
10149;DHT22;5115;50.920;6.376;2023-05-18T12:55:17;19.10;99.90
10149;DHT22;5115;50.920;6.376;2023-05-18T12:57:58;19.10;99.90
10149;DHT22;5115;50.920;6.376;2023-05-18T13:00:24;19.20;99.90
10149;DHT22;5115;50.920;6.376;2023-05-18T13:02:50;18.80;99.90
10149;DHT22;5115;50.920;6.376;2023-05-18T13:05:22;19.10;99.90
10149;DHT22;5115;50.920;6.376;2023-05-18T13:07:48;18.90;99.90
10149;DHT22;5115;50.920;6.376;2023-05-18T13:10:16;19.00;99.90
10149;DHT22;5115;50.920;6.376;2023-05-18T13:12:48;18.70;99.90
10149;DHT22;5115;50.920;6.376;2023-05-18T13:18:00;18.60;99.90
10149;DHT22;5115;50.920;6.376;2023-05-18T13:20:35;18.50;99.90
10149;DHT22;5115;50.920;6.376;2023-05-18T13:23:06;18.20;99.90
10149;DHT22;5115;50.920;6.376;2023-05-18T13:25:32;18.30;99.90
10149;DHT22;5115;50.920;6.376;2023-05-18T13:27:57;18.70;99.90
10149;DHT22;5115;50.920;6.376;2023-05-18T13:30:23;18.90;99.90
10149;DHT22;5115;50.920;6.376;2023-05-18T13:32:50;19.00;99.90
10149;DHT22;5115;50.920;6.376;2023-05-18T13:35:17;18.80;99.90
10149;DHT22;5115;50.920;6.376;2023-05-18T13:37:45;18.60;99.90
10149;DHT22;5115;50.920;6.376;2023-05-18T13:40:13;18.60;99.90
10149;DHT22;5115;50.920;6.376;2023-05-18T13:42:39;18.30;99.90
10149;DHT22;5115;50.920;6.376;2023-05-18T13:45:05;18.20;99.90
10149;DHT22;5115;50.920;6.376;2023-05-18T13:47:30;18.20;99.90
10149;DHT22;5115;50.920;6.376;2023-05-18T13:49:56;18.00;99.90
10149;DHT22;5115;50.920;6.376;2023-05-18T13:52:22;18.10;99.90
10149;DHT22;5115;50.920;6.376;2023-05-18T13:54:47;18.40;99.90
10149;DHT22;5115;50.920;6.376;2023-05-18T13:57:13;18.50;99.90
10149;DHT22;5115;50.920;6.376;2023-05-18T13:59:39;18.60;99.90
10149;DHT22;5115;50.920;6.376;2023-05-18T14:02:04;18.60;99.90
10149;DHT22;5115;50.920;6.376;2023-05-18T14:04:30;18.70;99.90
10149;DHT22;5115;50.920;6.376;2023-05-18T14:06:56;18.30;99.90
10149;DHT22;5115;50.920;6.376;2023-05-18T14:09:23;18.30;99.90
10149;DHT22;5115;50.920;6.376;2023-05-18T14:11:49;18.20;99.90
10149;DHT22;5115;50.920;6.376;2023-05-18T14:14:14;18.30;99.90
10149;DHT22;5115;50.920;6.376;2023-05-18T14:16:40;18.40;99.90
10149;DHT22;5115;50.920;6.376;2023-05-18T14:19:05;18.60;99.90
10149;DHT22;5115;50.920;6.376;2023-05-18T14:21:31;18.70;99.90
10149;DHT22;5115;50.920;6.376;2023-05-18T14:23:57;18.80;99.90
10149;DHT22;5115;50.920;6.376;2023-05-18T14:26:22;18.70;99.90
10149;DHT22;5115;50.920;6.376;2023-05-18T14:28:48;18.90;99.90
10149;DHT22;5115;50.920;6.376;2023-05-18T14:31:13;18.80;99.90
10149;DHT22;5115;50.920;6.376;2023-05-18T14:33:39;18.30;99.90
10149;DHT22;5115;50.920;6.376;2023-05-18T14:36:04;18.20;99.90
10149;DHT22;5115;50.920;6.376;2023-05-18T14:38:30;18.40;99.90
10149;DHT22;5115;50.920;6.376;2023-05-18T14:40:55;18.50;99.90
10149;DHT22;5115;50.920;6.376;2023-05-18T14:43:21;18.40;99.90
10149;DHT22;5115;50.920;6.376;2023-05-18T14:45:46;18.30;99.90
10149;DHT22;5115;50.920;6.376;2023-05-18T14:48:12;18.10;99.90
10149;DHT22;5115;50.920;6.376;2023-05-18T14:50:38;18.00;99.90
10149;DHT22;5115;50.920;6.376;2023-05-18T14:53:03;18.10;99.90
10149;DHT22;5115;50.920;6.376;2023-05-18T14:55:29;17.90;99.90
10149;DHT22;5115;50.920;6.376;2023-05-18T14:57:54;17.80;99.90
10149;DHT22;5115;50.920;6.376;2023-05-18T15:00:20;17.80;99.90
10149;DHT22;5115;50.920;6.376;2023-05-18T15:02:46;17.80;99.90
10149;DHT22;5115;50.920;6.376;2023-05-18T15:05:11;17.80;99.90
10149;DHT22;5115;50.920;6.376;2023-05-18T15:07:37;17.70;99.90
10149;DHT22;5115;50.920;6.376;2023-05-18T15:10:03;17.70;99.90
10149;DHT22;5115;50.920;6.376;2023-05-18T15:12:28;17.70;99.90
10149;DHT22;5115;50.920;6.376;2023-05-18T15:14:54;18.00;99.90
10149;DHT22;5115;50.920;6.376;2023-05-18T15:17:20;17.90;99.90
10149;DHT22;5115;50.920;6.376;2023-05-18T15:19:45;18.00;99.90
10149;DHT22;5115;50.920;6.376;2023-05-18T15:22:12;18.00;99.90
10149;DHT22;5115;50.920;6.376;2023-05-18T15:24:37;18.20;99.90
10149;DHT22;5115;50.920;6.376;2023-05-18T15:27:03;18.30;99.90
10149;DHT22;5115;50.920;6.376;2023-05-18T15:29:29;18.30;99.90
10149;DHT22;5115;50.920;6.376;2023-05-18T15:31:54;18.30;99.90
10149;DHT22;5115;50.920;6.376;2023-05-18T15:34:20;17.90;99.90
10149;DHT22;5115;50.920;6.376;2023-05-18T15:36:46;17.80;99.90
10149;DHT22;5115;50.920;6.376;2023-05-18T15:39:11;17.70;99.90
10149;DHT22;5115;50.920;6.376;2023-05-18T15:41:37;17.70;99.90
10149;DHT22;5115;50.920;6.376;2023-05-18T15:44:02;17.70;99.90
10149;DHT22;5115;50.920;6.376;2023-05-18T15:46:29;17.70;99.90
10149;DHT22;5115;50.920;6.376;2023-05-18T15:49:00;17.60;99.90
10149;DHT22;5115;50.920;6.376;2023-05-18T15:51:26;17.70;99.90
10149;DHT22;5115;50.920;6.376;2023-05-18T15:53:52;17.70;99.90
10149;DHT22;5115;50.920;6.376;2023-05-18T15:56:19;17.80;99.90
10149;DHT22;5115;50.920;6.376;2023-05-18T15:58:46;17.80;99.90
10149;DHT22;5115;50.920;6.376;2023-05-18T16:01:13;17.80;99.90
10149;DHT22;5115;50.920;6.376;2023-05-18T16:03:38;17.90;99.90
10149;DHT22;5115;50.920;6.376;2023-05-18T16:06:04;18.10;99.90
10149;DHT22;5115;50.920;6.376;2023-05-18T16:08:30;18.20;99.90
10149;DHT22;5115;50.920;6.376;2023-05-18T16:10:55;18.10;99.90
10149;DHT22;5115;50.920;6.376;2023-05-18T16:13:21;18.00;99.90
10149;DHT22;5115;50.920;6.376;2023-05-18T16:15:50;18.00;99.90
10149;DHT22;5115;50.920;6.376;2023-05-18T16:18:15;18.00;99.90